sensor_id;sensor_type;location;lat;lon;timestamp;P1;durP1;ratioP1;P2;durP2;ratioP2
12762;SDS011;6445;52.490;13.378;2023-07-29T00:01:47;9.68;;;8.52;;
12762;SDS011;6445;52.490;13.378;2023-07-29T00:04:14;12.25;;;8.27;;
12762;SDS011;6445;52.490;13.378;2023-07-29T00:06:39;9.68;;;7.88;;
12762;SDS011;6445;52.490;13.378;2023-07-29T00:09:04;9.02;;;7.80;;
12762;SDS011;6445;52.490;13.378;2023-07-29T00:11:30;10.15;;;8.75;;
12762;SDS011;6445;52.490;13.378;2023-07-29T00:13:55;8.40;;;7.57;;
12762;SDS011;6445;52.490;13.378;2023-07-29T00:16:20;8.70;;;7.82;;
12762;SDS011;6445;52.490;13.378;2023-07-29T00:18:49;9.23;;;8.13;;
12762;SDS011;6445;52.490;13.378;2023-07-29T00:21:14;8.88;;;7.97;;
12762;SDS011;6445;52.490;13.378;2023-07-29T00:23:39;9.98;;;8.70;;
12762;SDS011;6445;52.490;13.378;2023-07-29T00:26:05;9.20;;;8.15;;
12762;SDS011;6445;52.490;13.378;2023-07-29T00:28:30;10.35;;;9.35;;
12762;SDS011;6445;52.490;13.378;2023-07-29T00:30:55;11.35;;;8.50;;
12762;SDS011;6445;52.490;13.378;2023-07-29T00:33:21;13.57;;;8.48;;
12762;SDS011;6445;52.490;13.378;2023-07-29T00:35:46;9.70;;;8.25;;
12762;SDS011;6445;52.490;13.378;2023-07-29T00:38:11;10.00;;;9.00;;
12762;SDS011;6445;52.490;13.378;2023-07-29T00:40:36;9.52;;;8.60;;
12762;SDS011;6445;52.490;13.378;2023-07-29T00:43:02;11.57;;;9.88;;
12762;SDS011;6445;52.490;13.378;2023-07-29T00:45:28;11.25;;;9.70;;
12762;SDS011;6445;52.490;13.378;2023-07-29T00:47:54;10.82;;;9.73;;
12762;SDS011;6445;52.490;13.378;2023-07-29T00:50:19;11.95;;;10.75;;
12762;SDS011;6445;52.490;13.378;2023-07-29T00:52:45;10.60;;;9.52;;
12762;SDS011;6445;52.490;13.378;2023-07-29T00:55:10;10.23;;;9.23;;
12762;SDS011;6445;52.490;13.378;2023-07-29T00:57:36;11.43;;;8.80;;
12762;SDS011;6445;52.490;13.378;2023-07-29T01:00:01;10.20;;;9.15;;
12762;SDS011;6445;52.490;13.378;2023-07-29T01:02:28;9.43;;;8.48;;
12762;SDS011;6445;52.490;13.378;2023-07-29T01:04:54;10.02;;;8.98;;
12762;SDS011;6445;52.490;13.378;2023-07-29T01:07:23;11.77;;;9.20;;
12762;SDS011;6445;52.490;13.378;2023-07-29T01:12:43;12.02;;;9.40;;
12762;SDS011;6445;52.490;13.378;2023-07-29T01:15:16;12.00;;;9.07;;
12762;SDS011;6445;52.490;13.378;2023-07-29T01:17:46;10.00;;;9.00;;
12762;SDS011;6445;52.490;13.378;2023-07-29T01:20:15;10.75;;;9.32;;
12762;SDS011;6445;52.490;13.378;2023-07-29T01:22:41;11.35;;;8.68;;
12762;SDS011;6445;52.490;13.378;2023-07-29T01:25:07;11.25;;;9.38;;
12762;SDS011;6445;52.490;13.378;2023-07-29T01:27:32;10.55;;;9.45;;
12762;SDS011;6445;52.490;13.378;2023-07-29T01:29:57;10.45;;;9.27;;
12762;SDS011;6445;52.490;13.378;2023-07-29T01:35:11;10.48;;;9.40;;
12762;SDS011;6445;52.490;13.378;2023-07-29T01:38:04;10.63;;;9.20;;
12762;SDS011;6445;52.490;13.378;2023-07-29T01:40:31;8.98;;;8.13;;
12762;SDS011;6445;52.490;13.378;2023-07-29T01:42:58;13.48;;;9.38;;
12762;SDS011;6445;52.490;13.378;2023-07-29T01:45:24;12.80;;;10.43;;
12762;SDS011;6445;52.490;13.378;2023-07-29T01:47:53;10.70;;;9.60;;
12762;SDS011;6445;52.490;13.378;2023-07-29T01:50:18;10.30;;;9.25;;
12762;SDS011;6445;52.490;13.378;2023-07-29T01:52:43;10.48;;;9.38;;
12762;SDS011;6445;52.490;13.378;2023-07-29T01:55:09;10.82;;;9.73;;
12762;SDS011;6445;52.490;13.378;2023-07-29T01:57:34;11.50;;;9.55;;
12762;SDS011;6445;52.490;13.378;2023-07-29T01:59:59;11.88;;;9.60;;
12762;SDS011;6445;52.490;13.378;2023-07-29T02:02:24;10.75;;;9.25;;
12762;SDS011;6445;52.490;13.378;2023-07-29T02:04:50;10.85;;;9.75;;
12762;SDS011;6445;52.490;13.378;2023-07-29T02:07:16;11.32;;;10.02;;
12762;SDS011;6445;52.490;13.378;2023-07-29T02:09:43;12.98;;;9.73;;
12762;SDS011;6445;52.490;13.378;2023-07-29T02:12:08;11.70;;;8.93;;
12762;SDS011;6445;52.490;13.378;2023-07-29T02:14:33;11.00;;;9.90;;
12762;SDS011;6445;52.490;13.378;2023-07-29T02:16:59;11.32;;;9.98;;
12762;SDS011;6445;52.490;13.378;2023-07-29T02:19:24;10.73;;;9.63;;
12762;SDS011;6445;52.490;13.378;2023-07-29T02:21:49;10.68;;;9.63;;
12762;SDS011;6445;52.490;13.378;2023-07-29T02:24:14;10.43;;;9.38;;
12762;SDS011;6445;52.490;13.378;2023-07-29T02:26:40;9.65;;;8.65;;
12762;SDS011;6445;52.490;13.378;2023-07-29T02:29:06;12.10;;;9.35;;
12762;SDS011;6445;52.490;13.378;2023-07-29T02:31:31;11.13;;;9.93;;
12762;SDS011;6445;52.490;13.378;2023-07-29T02:33:56;12.57;;;10.07;;
12762;SDS011;6445;52.490;13.378;2023-07-29T02:36:22;12.55;;;9.55;;
12762;SDS011;6445;52.490;13.378;2023-07-29T02:38:47;14.32;;;10.18;;
12762;SDS011;6445;52.490;13.378;2023-07-29T02:41:12;11.88;;;10.02;;
12762;SDS011;6445;52.490;13.378;2023-07-29T02:43:38;11.57;;;10.18;;
12762;SDS011;6445;52.490;13.378;2023-07-29T02:46:04;12.65;;;10.57;;
12762;SDS011;6445;52.490;13.378;2023-07-29T02:48:29;13.95;;;10.38;;
12762;SDS011;6445;52.490;13.378;2023-07-29T02:50:55;11.98;;;10.10;;
12762;SDS011;6445;52.490;13.378;2023-07-29T02:53:21;12.93;;;10.82;;
12762;SDS011;6445;52.490;13.378;2023-07-29T02:55:47;11.52;;;9.82;;
12762;SDS011;6445;52.490;13.378;2023-07-29T02:58:12;12.13;;;10.93;;
12762;SDS011;6445;52.490;13.378;2023-07-29T03:00:37;13.65;;;10.18;;
12762;SDS011;6445;52.490;13.378;2023-07-29T03:03:03;12.32;;;10.18;;
12762;SDS011;6445;52.490;13.378;2023-07-29T03:05:29;11.55;;;9.95;;
12762;SDS011;6445;52.490;13.378;2023-07-29T03:07:54;11.30;;;10.02;;
12762;SDS011;6445;52.490;13.378;2023-07-29T03:10:19;12.65;;;10.13;;
12762;SDS011;6445;52.490;13.378;2023-07-29T03:12:45;14.05;;;9.93;;
12762;SDS011;6445;52.490;13.378;2023-07-29T03:15:11;10.63;;;9.30;;
12762;SDS011;6445;52.490;13.378;2023-07-29T03:17:36;11.27;;;10.18;;
12762;SDS011;6445;52.490;13.378;2023-07-29T03:20:02;12.07;;;9.52;;
12762;SDS011;6445;52.490;13.378;2023-07-29T03:22:27;13.38;;;10.27;;
12762;SDS011;6445;52.490;13.378;2023-07-29T03:24:52;14.57;;;10.00;;
12762;SDS011;6445;52.490;13.378;2023-07-29T03:27:17;10.75;;;9.65;;
12762;SDS011;6445;52.490;13.378;2023-07-29T03:29:43;11.95;;;10.55;;
12762;SDS011;6445;52.490;13.378;2023-07-29T03:32:08;12.40;;;10.07;;
12762;SDS011;6445;52.490;13.378;2023-07-29T03:34:33;15.02;;;11.10;;
12762;SDS011;6445;52.490;13.378;2023-07-29T03:36:59;12.45;;;10.45;;
12762;SDS011;6445;52.490;13.378;2023-07-29T03:39:25;12.52;;;10.48;;
12762;SDS011;6445;52.490;13.378;2023-07-29T03:41:51;13.25;;;10.48;;
12762;SDS011;6445;52.490;13.378;2023-07-29T03:44:16;12.13;;;9.98;;
12762;SDS011;6445;52.490;13.378;2023-07-29T03:46:42;12.95;;;10.25;;
12762;SDS011;6445;52.490;13.378;2023-07-29T03:49:07;12.75;;;11.45;;
12762;SDS011;6445;52.490;13.378;2023-07-29T03:51:33;12.75;;;11.35;;
12762;SDS011;6445;52.490;13.378;2023-07-29T03:53:58;12.60;;;11.30;;
12762;SDS011;6445;52.490;13.378;2023-07-29T03:56:23;11.40;;;10.30;;
12762;SDS011;6445;52.490;13.378;2023-07-29T03:58:48;12.10;;;10.43;;
12762;SDS011;6445;52.490;13.378;2023-07-29T04:01:14;11.38;;;10.25;;
12762;SDS011;6445;52.490;13.378;2023-07-29T04:03:39;13.23;;;10.90;;
12762;SDS011;6445;52.490;13.378;2023-07-29T04:06:04;13.63;;;11.15;;
12762;SDS011;6445;52.490;13.378;2023-07-29T04:08:30;12.43;;;11.13;;
12762;SDS011;6445;52.490;13.378;2023-07-29T04:10:55;14.07;;;11.25;;
12762;SDS011;6445;52.490;13.378;2023-07-29T04:13:20;11.85;;;10.52;;
12762;SDS011;6445;52.490;13.378;2023-07-29T04:15:46;12.02;;;10.82;;
12762;SDS011;6445;52.490;13.378;2023-07-29T04:18:11;12.05;;;10.73;;
12762;SDS011;6445;52.490;13.378;2023-07-29T04:20:36;11.45;;;10.27;;
12762;SDS011;6445;52.490;13.378;2023-07-29T04:23:01;11.20;;;10.05;;
12762;SDS011;6445;52.490;13.378;2023-07-29T04:25:27;10.75;;;9.65;;
12762;SDS011;6445;52.490;13.378;2023-07-29T04:27:52;12.35;;;9.60;;
12762;SDS011;6445;52.490;13.378;2023-07-29T04:30:18;11.30;;;10.13;;
12762;SDS011;6445;52.490;13.378;2023-07-29T04:32:43;10.30;;;9.23;;
12762;SDS011;6445;52.490;13.378;2023-07-29T04:35:09;10.60;;;9.50;;
12762;SDS011;6445;52.490;13.378;2023-07-29T04:37:35;11.73;;;8.98;;
12762;SDS011;6445;52.490;13.378;2023-07-29T04:40:00;9.80;;;8.80;;
12762;SDS011;6445;52.490;13.378;2023-07-29T04:42:25;11.30;;;8.45;;
12762;SDS011;6445;52.490;13.378;2023-07-29T04:44:50;9.35;;;8.40;;
12762;SDS011;6445;52.490;13.378;2023-07-29T04:47:16;10.23;;;9.23;;
12762;SDS011;6445;52.490;13.378;2023-07-29T04:49:41;9.65;;;8.65;;
12762;SDS011;6445;52.490;13.378;2023-07-29T04:52:06;10.00;;;9.00;;
12762;SDS011;6445;52.490;13.378;2023-07-29T04:54:32;11.07;;;8.88;;
12762;SDS011;6445;52.490;13.378;2023-07-29T04:56:57;9.07;;;8.18;;
12762;SDS011;6445;52.490;13.378;2023-07-29T04:59:22;8.93;;;8.02;;
12762;SDS011;6445;52.490;13.378;2023-07-29T05:01:48;8.57;;;7.78;;
12762;SDS011;6445;52.490;13.378;2023-07-29T05:04:13;8.90;;;8.00;;
12762;SDS011;6445;52.490;13.378;2023-07-29T05:06:39;9.48;;;8.57;;
12762;SDS011;6445;52.490;13.378;2023-07-29T05:09:14;9.30;;;8.20;;
12762;SDS011;6445;52.490;13.378;2023-07-29T05:11:40;8.68;;;7.80;;
12762;SDS011;6445;52.490;13.378;2023-07-29T05:14:06;9.65;;;8.18;;
12762;SDS011;6445;52.490;13.378;2023-07-29T05:16:31;9.32;;;8.32;;
12762;SDS011;6445;52.490;13.378;2023-07-29T05:18:57;11.77;;;10.23;;
12762;SDS011;6445;52.490;13.378;2023-07-29T05:21:22;10.15;;;8.77;;
12762;SDS011;6445;52.490;13.378;2023-07-29T05:23:47;9.75;;;8.40;;
12762;SDS011;6445;52.490;13.378;2023-07-29T05:26:12;8.85;;;7.93;;
12762;SDS011;6445;52.490;13.378;2023-07-29T05:28:38;8.07;;;7.28;;
12762;SDS011;6445;52.490;13.378;2023-07-29T05:31:03;8.30;;;7.50;;
12762;SDS011;6445;52.490;13.378;2023-07-29T05:33:28;7.97;;;7.13;;
12762;SDS011;6445;52.490;13.378;2023-07-29T05:35:54;7.22;;;6.53;;
12762;SDS011;6445;52.490;13.378;2023-07-29T05:38:19;6.88;;;6.20;;
12762;SDS011;6445;52.490;13.378;2023-07-29T05:40:45;7.95;;;7.15;;
12762;SDS011;6445;52.490;13.378;2023-07-29T05:43:10;7.38;;;6.65;;
12762;SDS011;6445;52.490;13.378;2023-07-29T05:45:35;6.65;;;6.00;;
12762;SDS011;6445;52.490;13.378;2023-07-29T05:48:01;8.25;;;6.88;;
12762;SDS011;6445;52.490;13.378;2023-07-29T05:50:26;6.45;;;5.85;;
12762;SDS011;6445;52.490;13.378;2023-07-29T05:52:51;6.55;;;5.95;;
12762;SDS011;6445;52.490;13.378;2023-07-29T05:55:16;6.57;;;5.97;;
12762;SDS011;6445;52.490;13.378;2023-07-29T05:57:41;8.82;;;6.03;;
12762;SDS011;6445;52.490;13.378;2023-07-29T06:00:07;8.13;;;6.03;;
12762;SDS011;6445;52.490;13.378;2023-07-29T06:02:33;6.00;;;5.28;;
12762;SDS011;6445;52.490;13.378;2023-07-29T06:04:58;5.50;;;5.00;;
12762;SDS011;6445;52.490;13.378;2023-07-29T06:07:23;6.18;;;4.72;;
12762;SDS011;6445;52.490;13.378;2023-07-29T06:09:49;5.25;;;4.18;;
12762;SDS011;6445;52.490;13.378;2023-07-29T06:12:14;5.22;;;4.72;;
12762;SDS011;6445;52.490;13.378;2023-07-29T06:14:40;4.75;;;4.32;;
12762;SDS011;6445;52.490;13.378;2023-07-29T06:17:05;4.75;;;4.03;;
12762;SDS011;6445;52.490;13.378;2023-07-29T06:19:31;4.50;;;4.13;;
12762;SDS011;6445;52.490;13.378;2023-07-29T06:21:57;4.95;;;4.25;;
12762;SDS011;6445;52.490;13.378;2023-07-29T06:24:22;5.40;;;3.72;;
12762;SDS011;6445;52.490;13.378;2023-07-29T06:26:47;7.30;;;4.28;;
12762;SDS011;6445;52.490;13.378;2023-07-29T06:29:12;5.30;;;3.75;;
12762;SDS011;6445;52.490;13.378;2023-07-29T06:31:38;4.30;;;3.90;;
12762;SDS011;6445;52.490;13.378;2023-07-29T06:34:03;4.25;;;3.75;;
12762;SDS011;6445;52.490;13.378;2023-07-29T06:36:28;4.70;;;4.20;;
12762;SDS011;6445;52.490;13.378;2023-07-29T06:38:53;4.63;;;3.55;;
12762;SDS011;6445;52.490;13.378;2023-07-29T06:41:19;4.43;;;4.03;;
12762;SDS011;6445;52.490;13.378;2023-07-29T06:43:44;4.32;;;3.92;;
12762;SDS011;6445;52.490;13.378;2023-07-29T06:46:09;4.97;;;4.00;;
12762;SDS011;6445;52.490;13.378;2023-07-29T06:48:34;4.35;;;3.92;;
12762;SDS011;6445;52.490;13.378;2023-07-29T06:51:00;5.18;;;3.92;;
12762;SDS011;6445;52.490;13.378;2023-07-29T06:53:26;5.47;;;3.92;;
12762;SDS011;6445;52.490;13.378;2023-07-29T06:55:51;5.32;;;4.13;;
12762;SDS011;6445;52.490;13.378;2023-07-29T06:58:17;5.80;;;3.85;;
12762;SDS011;6445;52.490;13.378;2023-07-29T07:00:42;4.50;;;3.88;;
12762;SDS011;6445;52.490;13.378;2023-07-29T07:03:07;3.85;;;3.42;;
12762;SDS011;6445;52.490;13.378;2023-07-29T07:05:32;4.90;;;4.40;;
12762;SDS011;6445;52.490;13.378;2023-07-29T07:07:58;5.35;;;4.10;;
12762;SDS011;6445;52.490;13.378;2023-07-29T07:10:23;4.53;;;4.13;;
12762;SDS011;6445;52.490;13.378;2023-07-29T07:12:48;5.78;;;4.32;;
12762;SDS011;6445;52.490;13.378;2023-07-29T07:15:13;4.60;;;3.90;;
12762;SDS011;6445;52.490;13.378;2023-07-29T07:17:38;6.40;;;3.83;;
12762;SDS011;6445;52.490;13.378;2023-07-29T07:20:05;4.18;;;3.75;;
12762;SDS011;6445;52.490;13.378;2023-07-29T07:22:31;4.30;;;3.90;;
12762;SDS011;6445;52.490;13.378;2023-07-29T07:24:56;4.75;;;4.35;;
12762;SDS011;6445;52.490;13.378;2023-07-29T07:27:21;7.15;;;4.05;;
12762;SDS011;6445;52.490;13.378;2023-07-29T07:29:46;3.80;;;3.50;;
12762;SDS011;6445;52.490;13.378;2023-07-29T07:32:12;7.15;;;3.70;;
12762;SDS011;6445;52.490;13.378;2023-07-29T07:34:37;4.25;;;3.83;;
12762;SDS011;6445;52.490;13.378;2023-07-29T07:37:02;3.75;;;3.45;;
12762;SDS011;6445;52.490;13.378;2023-07-29T07:39:29;5.00;;;4.47;;
12762;SDS011;6445;52.490;13.378;2023-07-29T07:41:54;4.38;;;3.90;;
12762;SDS011;6445;52.490;13.378;2023-07-29T07:44:20;4.22;;;3.83;;
12762;SDS011;6445;52.490;13.378;2023-07-29T07:46:45;4.78;;;4.28;;
12762;SDS011;6445;52.490;13.378;2023-07-29T07:49:11;4.63;;;4.00;;
12762;SDS011;6445;52.490;13.378;2023-07-29T07:51:37;4.10;;;3.80;;
12762;SDS011;6445;52.490;13.378;2023-07-29T07:54:03;3.65;;;3.28;;
12762;SDS011;6445;52.490;13.378;2023-07-29T07:56:28;3.85;;;3.35;;
12762;SDS011;6445;52.490;13.378;2023-07-29T07:58:53;3.85;;;3.40;;
12762;SDS011;6445;52.490;13.378;2023-07-29T08:01:18;3.63;;;3.33;;
12762;SDS011;6445;52.490;13.378;2023-07-29T08:03:44;4.47;;;3.40;;
12762;SDS011;6445;52.490;13.378;2023-07-29T08:06:09;3.63;;;2.95;;
12762;SDS011;6445;52.490;13.378;2023-07-29T08:08:35;4.35;;;3.72;;
12762;SDS011;6445;52.490;13.378;2023-07-29T08:11:00;3.80;;;3.40;;
12762;SDS011;6445;52.490;13.378;2023-07-29T08:13:25;3.70;;;3.35;;
12762;SDS011;6445;52.490;13.378;2023-07-29T08:15:51;3.55;;;3.25;;
12762;SDS011;6445;52.490;13.378;2023-07-29T08:18:17;3.92;;;3.63;;
12762;SDS011;6445;52.490;13.378;2023-07-29T08:20:53;5.68;;;3.42;;
12762;SDS011;6445;52.490;13.378;2023-07-29T08:23:20;5.10;;;3.42;;
12762;SDS011;6445;52.490;13.378;2023-07-29T08:25:50;3.45;;;3.15;;
12762;SDS011;6445;52.490;13.378;2023-07-29T08:28:16;5.25;;;3.47;;
12762;SDS011;6445;52.490;13.378;2023-07-29T08:30:42;3.60;;;3.30;;
12762;SDS011;6445;52.490;13.378;2023-07-29T08:33:07;3.70;;;3.40;;
12762;SDS011;6445;52.490;13.378;2023-07-29T08:35:32;3.90;;;3.50;;
12762;SDS011;6445;52.490;13.378;2023-07-29T08:37:57;3.70;;;3.30;;
12762;SDS011;6445;52.490;13.378;2023-07-29T08:40:25;3.95;;;3.65;;
12762;SDS011;6445;52.490;13.378;2023-07-29T08:42:54;3.92;;;3.50;;
12762;SDS011;6445;52.490;13.378;2023-07-29T08:45:23;4.07;;;3.42;;
12762;SDS011;6445;52.490;13.378;2023-07-29T08:47:49;4.15;;;3.38;;
12762;SDS011;6445;52.490;13.378;2023-07-29T08:50:19;4.85;;;3.60;;
12762;SDS011;6445;52.490;13.378;2023-07-29T08:52:44;3.80;;;3.38;;
12762;SDS011;6445;52.490;13.378;2023-07-29T08:55:11;4.53;;;3.63;;
12762;SDS011;6445;52.490;13.378;2023-07-29T08:57:36;4.10;;;3.70;;
12762;SDS011;6445;52.490;13.378;2023-07-29T09:00:02;4.22;;;3.30;;
12762;SDS011;6445;52.490;13.378;2023-07-29T09:02:28;3.67;;;3.38;;
12762;SDS011;6445;52.490;13.378;2023-07-29T09:04:53;3.22;;;2.75;;
12762;SDS011;6445;52.490;13.378;2023-07-29T09:07:18;3.13;;;2.83;;
12762;SDS011;6445;52.490;13.378;2023-07-29T09:09:44;4.18;;;3.08;;
12762;SDS011;6445;52.490;13.378;2023-07-29T09:12:10;3.72;;;3.10;;
12762;SDS011;6445;52.490;13.378;2023-07-29T09:14:36;4.30;;;3.10;;
12762;SDS011;6445;52.490;13.378;2023-07-29T09:17:01;4.50;;;2.80;;
12762;SDS011;6445;52.490;13.378;2023-07-29T09:19:26;3.80;;;3.50;;
12762;SDS011;6445;52.490;13.378;2023-07-29T09:21:52;3.08;;;2.88;;
12762;SDS011;6445;52.490;13.378;2023-07-29T09:24:17;3.22;;;2.95;;
12762;SDS011;6445;52.490;13.378;2023-07-29T09:26:48;3.05;;;2.85;;
12762;SDS011;6445;52.490;13.378;2023-07-29T09:29:14;3.25;;;2.83;;
12762;SDS011;6445;52.490;13.378;2023-07-29T09:31:39;4.72;;;2.90;;
12762;SDS011;6445;52.490;13.378;2023-07-29T09:34:05;4.32;;;3.00;;
12762;SDS011;6445;52.490;13.378;2023-07-29T09:36:31;3.35;;;2.60;;
12762;SDS011;6445;52.490;13.378;2023-07-29T09:38:57;2.95;;;2.67;;
12762;SDS011;6445;52.490;13.378;2023-07-29T09:41:24;3.13;;;2.75;;
12762;SDS011;6445;52.490;13.378;2023-07-29T09:43:57;2.97;;;2.70;;
12762;SDS011;6445;52.490;13.378;2023-07-29T09:46:24;2.83;;;2.63;;
12762;SDS011;6445;52.490;13.378;2023-07-29T09:48:52;3.53;;;2.90;;
12762;SDS011;6445;52.490;13.378;2023-07-29T09:51:18;3.95;;;2.80;;
12762;SDS011;6445;52.490;13.378;2023-07-29T09:53:44;2.88;;;2.67;;
12762;SDS011;6445;52.490;13.378;2023-07-29T09:56:12;2.70;;;2.38;;
12762;SDS011;6445;52.490;13.378;2023-07-29T09:58:37;3.28;;;2.42;;
12762;SDS011;6445;52.490;13.378;2023-07-29T10:01:04;2.65;;;2.45;;
12762;SDS011;6445;52.490;13.378;2023-07-29T10:03:30;2.80;;;2.60;;
12762;SDS011;6445;52.490;13.378;2023-07-29T10:05:56;2.50;;;2.30;;
12762;SDS011;6445;52.490;13.378;2023-07-29T10:08:26;2.97;;;2.78;;
12762;SDS011;6445;52.490;13.378;2023-07-29T10:10:52;2.55;;;2.35;;
12762;SDS011;6445;52.490;13.378;2023-07-29T10:13:19;3.05;;;2.55;;
12762;SDS011;6445;52.490;13.378;2023-07-29T10:15:44;3.35;;;2.50;;
12762;SDS011;6445;52.490;13.378;2023-07-29T10:18:10;2.97;;;2.78;;
12762;SDS011;6445;52.490;13.378;2023-07-29T10:20:37;4.22;;;2.67;;
12762;SDS011;6445;52.490;13.378;2023-07-29T10:23:03;2.30;;;2.10;;
12762;SDS011;6445;52.490;13.378;2023-07-29T10:25:37;2.55;;;2.35;;
12762;SDS011;6445;52.490;13.378;2023-07-29T10:28:06;2.45;;;2.17;;
12762;SDS011;6445;52.490;13.378;2023-07-29T10:30:32;4.35;;;2.45;;
12762;SDS011;6445;52.490;13.378;2023-07-29T10:32:58;2.47;;;2.28;;
12762;SDS011;6445;52.490;13.378;2023-07-29T10:35:27;2.53;;;2.33;;
12762;SDS011;6445;52.490;13.378;2023-07-29T10:37:53;2.80;;;2.60;;
12762;SDS011;6445;52.490;13.378;2023-07-29T10:40:18;3.85;;;2.45;;
12762;SDS011;6445;52.490;13.378;2023-07-29T10:43:01;2.65;;;2.45;;
12762;SDS011;6445;52.490;13.378;2023-07-29T10:45:28;2.45;;;2.25;;
12762;SDS011;6445;52.490;13.378;2023-07-29T10:48:04;3.10;;;2.30;;
12762;SDS011;6445;52.490;13.378;2023-07-29T10:50:50;2.40;;;2.20;;
12762;SDS011;6445;52.490;13.378;2023-07-29T10:53:16;2.88;;;2.10;;
12762;SDS011;6445;52.490;13.378;2023-07-29T10:55:41;3.90;;;2.00;;
12762;SDS011;6445;52.490;13.378;2023-07-29T10:58:12;2.42;;;2.03;;
12762;SDS011;6445;52.490;13.378;2023-07-29T11:00:43;2.70;;;1.90;;
12762;SDS011;6445;52.490;13.378;2023-07-29T11:03:09;2.78;;;1.92;;
12762;SDS011;6445;52.490;13.378;2023-07-29T11:05:41;2.10;;;1.90;;
12762;SDS011;6445;52.490;13.378;2023-07-29T11:08:18;3.10;;;2.00;;
12762;SDS011;6445;52.490;13.378;2023-07-29T11:10:45;4.07;;;2.45;;
12762;SDS011;6445;52.490;13.378;2023-07-29T11:13:23;5.45;;;2.70;;
12762;SDS011;6445;52.490;13.378;2023-07-29T11:15:50;5.20;;;2.33;;
12762;SDS011;6445;52.490;13.378;2023-07-29T11:18:18;4.78;;;2.08;;
12762;SDS011;6445;52.490;13.378;2023-07-29T11:20:45;5.28;;;2.08;;
12762;SDS011;6445;52.490;13.378;2023-07-29T11:23:10;6.97;;;2.35;;
12762;SDS011;6445;52.490;13.378;2023-07-29T11:25:36;3.53;;;1.70;;
12762;SDS011;6445;52.490;13.378;2023-07-29T11:28:01;2.22;;;1.20;;
12762;SDS011;6445;52.490;13.378;2023-07-29T11:30:26;2.75;;;1.50;;
12762;SDS011;6445;52.490;13.378;2023-07-29T11:32:53;2.60;;;1.60;;
12762;SDS011;6445;52.490;13.378;2023-07-29T11:35:18;2.60;;;1.48;;
12762;SDS011;6445;52.490;13.378;2023-07-29T11:37:45;2.25;;;1.48;;
12762;SDS011;6445;52.490;13.378;2023-07-29T11:40:18;3.47;;;1.98;;
12762;SDS011;6445;52.490;13.378;2023-07-29T11:42:46;4.80;;;1.80;;
12762;SDS011;6445;52.490;13.378;2023-07-29T11:45:13;3.25;;;2.42;;
12762;SDS011;6445;52.490;13.378;2023-07-29T11:47:39;4.40;;;1.75;;
12762;SDS011;6445;52.490;13.378;2023-07-29T11:50:06;4.90;;;2.65;;
12762;SDS011;6445;52.490;13.378;2023-07-29T11:52:39;2.35;;;1.85;;
12762;SDS011;6445;52.490;13.378;2023-07-29T11:55:05;2.28;;;1.90;;
12762;SDS011;6445;52.490;13.378;2023-07-29T11:57:32;3.75;;;1.88;;
12762;SDS011;6445;52.490;13.378;2023-07-29T12:00:03;3.85;;;2.03;;
12762;SDS011;6445;52.490;13.378;2023-07-29T12:02:31;2.90;;;2.20;;
12762;SDS011;6445;52.490;13.378;2023-07-29T12:04:57;3.20;;;2.78;;
12762;SDS011;6445;52.490;13.378;2023-07-29T12:07:23;4.00;;;2.35;;
12762;SDS011;6445;52.490;13.378;2023-07-29T12:09:48;4.72;;;2.60;;
12762;SDS011;6445;52.490;13.378;2023-07-29T12:12:15;3.03;;;2.17;;
12762;SDS011;6445;52.490;13.378;2023-07-29T12:14:43;3.92;;;2.47;;
12762;SDS011;6445;52.490;13.378;2023-07-29T12:17:09;3.08;;;2.35;;
12762;SDS011;6445;52.490;13.378;2023-07-29T12:19:35;3.50;;;2.60;;
12762;SDS011;6445;52.490;13.378;2023-07-29T12:22:01;2.63;;;2.20;;
12762;SDS011;6445;52.490;13.378;2023-07-29T12:24:31;3.53;;;2.20;;
12762;SDS011;6445;52.490;13.378;2023-07-29T12:27:03;3.30;;;2.10;;
12762;SDS011;6445;52.490;13.378;2023-07-29T12:29:29;2.50;;;1.98;;
12762;SDS011;6445;52.490;13.378;2023-07-29T12:31:58;2.85;;;2.10;;
12762;SDS011;6445;52.490;13.378;2023-07-29T12:34:25;2.17;;;1.88;;
12762;SDS011;6445;52.490;13.378;2023-07-29T12:36:51;2.67;;;1.92;;
12762;SDS011;6445;52.490;13.378;2023-07-29T12:39:21;3.03;;;2.05;;
12762;SDS011;6445;52.490;13.378;2023-07-29T12:41:48;3.90;;;2.53;;
12762;SDS011;6445;52.490;13.378;2023-07-29T12:44:14;3.83;;;2.60;;
12762;SDS011;6445;52.490;13.378;2023-07-29T12:46:39;3.72;;;2.60;;
12762;SDS011;6445;52.490;13.378;2023-07-29T12:49:05;3.47;;;2.25;;
12762;SDS011;6445;52.490;13.378;2023-07-29T12:51:31;2.65;;;2.22;;
12762;SDS011;6445;52.490;13.378;2023-07-29T12:53:56;2.47;;;2.28;;
12762;SDS011;6445;52.490;13.378;2023-07-29T12:56:22;3.25;;;2.25;;
12762;SDS011;6445;52.490;13.378;2023-07-29T12:58:47;3.05;;;2.13;;
12762;SDS011;6445;52.490;13.378;2023-07-29T13:01:12;3.65;;;2.30;;
12762;SDS011;6445;52.490;13.378;2023-07-29T13:03:42;4.57;;;2.35;;
12762;SDS011;6445;52.490;13.378;2023-07-29T13:06:07;3.42;;;2.40;;
12762;SDS011;6445;52.490;13.378;2023-07-29T13:08:32;3.17;;;2.40;;
12762;SDS011;6445;52.490;13.378;2023-07-29T13:10:58;3.92;;;2.53;;
12762;SDS011;6445;52.490;13.378;2023-07-29T13:13:23;3.20;;;2.45;;
12762;SDS011;6445;52.490;13.378;2023-07-29T13:15:48;3.15;;;2.75;;
12762;SDS011;6445;52.490;13.378;2023-07-29T13:18:13;2.67;;;2.42;;
12762;SDS011;6445;52.490;13.378;2023-07-29T13:20:39;3.22;;;2.72;;
12762;SDS011;6445;52.490;13.378;2023-07-29T13:23:04;3.22;;;2.70;;
12762;SDS011;6445;52.490;13.378;2023-07-29T13:25:29;3.08;;;2.83;;
12762;SDS011;6445;52.490;13.378;2023-07-29T13:27:54;3.42;;;2.72;;
12762;SDS011;6445;52.490;13.378;2023-07-29T13:30:20;3.10;;;2.80;;
12762;SDS011;6445;52.490;13.378;2023-07-29T13:32:45;3.08;;;2.78;;
12762;SDS011;6445;52.490;13.378;2023-07-29T13:35:10;3.72;;;2.55;;
12762;SDS011;6445;52.490;13.378;2023-07-29T13:37:35;3.75;;;2.70;;
12762;SDS011;6445;52.490;13.378;2023-07-29T13:40:01;2.80;;;2.50;;
12762;SDS011;6445;52.490;13.378;2023-07-29T13:42:26;2.50;;;2.30;;
12762;SDS011;6445;52.490;13.378;2023-07-29T13:44:51;2.65;;;2.38;;
12762;SDS011;6445;52.490;13.378;2023-07-29T13:47:17;1.80;;;1.70;;
12762;SDS011;6445;52.490;13.378;2023-07-29T13:49:42;3.85;;;1.80;;
12762;SDS011;6445;52.490;13.378;2023-07-29T13:52:07;3.03;;;1.70;;
12762;SDS011;6445;52.490;13.378;2023-07-29T13:54:33;2.30;;;1.80;;
12762;SDS011;6445;52.490;13.378;2023-07-29T13:56:58;1.92;;;1.73;;
12762;SDS011;6445;52.490;13.378;2023-07-29T13:59:23;1.80;;;1.70;;
12762;SDS011;6445;52.490;13.378;2023-07-29T14:01:48;1.77;;;1.60;;
12762;SDS011;6445;52.490;13.378;2023-07-29T14:04:13;2.45;;;1.80;;
12762;SDS011;6445;52.490;13.378;2023-07-29T14:06:39;2.20;;;1.83;;
12762;SDS011;6445;52.490;13.378;2023-07-29T14:09:04;1.92;;;1.73;;
12762;SDS011;6445;52.490;13.378;2023-07-29T14:11:29;1.70;;;1.60;;
12762;SDS011;6445;52.490;13.378;2023-07-29T14:13:54;2.88;;;1.98;;
12762;SDS011;6445;52.490;13.378;2023-07-29T14:16:20;2.13;;;1.90;;
12762;SDS011;6445;52.490;13.378;2023-07-29T14:18:45;3.55;;;1.77;;
12762;SDS011;6445;52.490;13.378;2023-07-29T14:21:10;2.05;;;1.83;;
12762;SDS011;6445;52.490;13.378;2023-07-29T14:23:35;2.45;;;1.85;;
12762;SDS011;6445;52.490;13.378;2023-07-29T14:26:01;1.90;;;1.80;;
12762;SDS011;6445;52.490;13.378;2023-07-29T14:28:26;1.92;;;1.70;;
12762;SDS011;6445;52.490;13.378;2023-07-29T14:30:51;2.08;;;1.90;;
12762;SDS011;6445;52.490;13.378;2023-07-29T14:33:16;3.22;;;1.73;;
12762;SDS011;6445;52.490;13.378;2023-07-29T14:35:42;2.53;;;1.83;;
12762;SDS011;6445;52.490;13.378;2023-07-29T14:38:07;2.08;;;1.73;;
12762;SDS011;6445;52.490;13.378;2023-07-29T14:40:32;2.88;;;1.60;;
12762;SDS011;6445;52.490;13.378;2023-07-29T14:42:57;2.28;;;1.70;;